Terminal Aerodrome Forecast
Issued by NWS

Home | Current Version | Previous Version | Text Only | Print | Product List | Glossary On
Versions: 1 2 3 4 5 6 7 8 9 10 11 12 13 14 15 16 17 18 19
000
FTUS42 KMLB 281508 AAD
TAFFPR
TAF AMD
KFPR 281508Z 2815/2912 01009KT 3SM RA BR FEW004 OVC035
      TEMPO 2815/2818 1SM +RA BKN004
     FM281800 12009KT P6SM VCSH BKN035 BKN100
      TEMPO 2818/2822 3SM SHRA BR BKN025 OVC050
     FM290000 17006KT P6SM VCSH BKN050 OVC100
      TEMPO 2900/2904 3SM SHRA BR BKN025
     FM290600 20005KT P6SM VCSH BKN025=

USA.gov is the U.S. government's official web portal to all federal, state and local government web resources and services.